createdAt,value
2023-03-29T00:02:15.196Z,4.00
2023-03-29T00:04:42.430Z,3.83
2023-03-29T00:07:09.529Z,4.00
2023-03-29T00:09:36.648Z,3.70
2023-03-29T00:12:05.332Z,3.87
2023-03-29T00:14:32.448Z,4.03
2023-03-29T00:16:59.693Z,3.80
2023-03-29T00:19:26.807Z,3.03
2023-03-29T00:21:53.964Z,3.80
2023-03-29T00:24:21.461Z,3.40
2023-03-29T00:26:48.879Z,3.90
2023-03-29T00:29:17.427Z,3.37
2023-03-29T00:31:44.602Z,3.37
2023-03-29T00:34:11.849Z,3.57
2023-03-29T00:36:38.972Z,3.10
2023-03-29T00:39:06.135Z,4.73
2023-03-29T00:41:33.260Z,3.57
2023-03-29T00:44:01.520Z,3.17
2023-03-29T00:46:30.706Z,3.47
2023-03-29T00:48:59.369Z,4.40
2023-03-29T00:51:28.268Z,3.80
2023-03-29T00:53:56.968Z,3.53
2023-03-29T00:56:27.754Z,3.30
2023-03-29T00:58:57.298Z,3.40
2023-03-29T01:01:28.638Z,3.27
2023-03-29T01:04:00.937Z,3.10
2023-03-29T01:06:28.867Z,3.27
2023-03-29T01:08:56.880Z,3.23
2023-03-29T01:11:25.590Z,3.77
2023-03-29T01:13:57.236Z,3.73
2023-03-29T01:16:25.341Z,2.93
2023-03-29T01:18:52.887Z,3.10
2023-03-29T01:21:22.891Z,3.60
2023-03-29T01:24:14.489Z,3.60
2023-03-29T01:26:49.337Z,3.80
2023-03-29T01:29:21.818Z,3.83
2023-03-29T01:31:51.984Z,3.93
2023-03-29T01:34:23.385Z,3.60
2023-03-29T01:36:51.934Z,3.10
2023-03-29T01:39:19.017Z,3.40
2023-03-29T01:41:48.834Z,3.13
2023-03-29T01:44:19.281Z,3.07
2023-03-29T01:46:47.566Z,3.80
2023-03-29T01:49:17.544Z,2.90
2023-03-29T01:51:49.754Z,3.50
2023-03-29T01:54:19.275Z,3.47
2023-03-29T01:56:48.223Z,2.80
2023-03-29T01:59:17.407Z,3.07
2023-03-29T02:01:48.713Z,3.10
2023-03-29T02:04:18.038Z,3.00
2023-03-29T02:06:45.861Z,3.10
2023-03-29T02:09:13.048Z,3.10
2023-03-29T02:11:42.244Z,3.87
2023-03-29T02:14:09.305Z,4.30
2023-03-29T02:16:36.605Z,2.93
2023-03-29T02:19:05.974Z,3.10
2023-03-29T02:21:36.790Z,3.20
2023-03-29T02:24:06.497Z,3.87
2023-03-29T02:26:34.068Z,4.20
2023-03-29T02:29:01.439Z,3.63
2023-03-29T02:31:31.134Z,3.50
2023-03-29T02:33:59.290Z,3.00
2023-03-29T02:36:30.539Z,4.27
2023-03-29T02:38:59.229Z,3.50
2023-03-29T02:41:26.915Z,3.20
2023-03-29T02:43:54.571Z,3.70
2023-03-29T02:46:22.063Z,4.00
2023-03-29T02:48:50.875Z,3.60
2023-03-29T02:51:20.446Z,4.83
2023-03-29T02:53:49.911Z,4.17
2023-03-29T02:56:17.629Z,4.00
2023-03-29T02:58:44.698Z,4.87
2023-03-29T03:01:12.159Z,4.00
2023-03-29T03:03:39.560Z,3.97
2023-03-29T03:06:07.075Z,3.87
2023-03-29T03:08:34.204Z,3.80
2023-03-29T03:11:02.937Z,4.50
2023-03-29T03:13:30.307Z,3.53
2023-03-29T03:15:57.518Z,3.67
2023-03-29T03:18:24.712Z,3.73
2023-03-29T03:20:57.959Z,3.80
2023-03-29T03:23:25.258Z,4.10
2023-03-29T03:25:52.699Z,3.87
2023-03-29T03:28:21.767Z,4.27
2023-03-29T03:30:49.136Z,4.90
2023-03-29T03:33:25.344Z,4.33
2023-03-29T03:36:15.990Z,3.83
2023-03-29T03:38:44.643Z,4.10
2023-03-29T03:41:12.418Z,4.17
2023-03-29T03:43:41.076Z,4.57
2023-03-29T03:46:08.248Z,4.20
2023-03-29T03:48:35.458Z,4.90
2023-03-29T03:51:08.598Z,4.13
2023-03-29T03:53:36.188Z,4.50
2023-03-29T03:56:12.219Z,4.50
2023-03-29T03:59:00.583Z,4.20
2023-03-29T04:01:29.914Z,4.10
2023-03-29T04:04:09.802Z,4.20
2023-03-29T04:06:37.208Z,4.03
2023-03-29T04:09:24.569Z,4.30
2023-03-29T04:12:05.483Z,5.10
2023-03-29T04:14:33.942Z,4.33
2023-03-29T04:17:05.626Z,4.70
2023-03-29T04:19:46.557Z,4.60
2023-03-29T04:22:13.914Z,4.57
2023-03-29T04:24:40.995Z,4.30
2023-03-29T04:27:26.856Z,4.00
2023-03-29T04:29:55.974Z,4.57
2023-03-29T04:32:31.963Z,4.30
2023-03-29T04:35:03.699Z,4.13
2023-03-29T04:37:30.881Z,5.43
2023-03-29T04:39:58.832Z,5.97
2023-03-29T04:42:26.217Z,4.97
2023-03-29T04:44:53.689Z,4.97
2023-03-29T04:47:34.496Z,5.00
2023-03-29T04:50:09.268Z,5.97
2023-03-29T04:52:43.368Z,5.60
2023-03-29T04:55:11.162Z,5.50
2023-03-29T04:57:46.500Z,4.90
2023-03-29T05:00:19.527Z,6.13
2023-03-29T05:03:06.829Z,5.97
2023-03-29T05:05:38.380Z,5.30
2023-03-29T05:08:06.890Z,7.60
2023-03-29T05:10:44.410Z,5.40
2023-03-29T05:13:12.774Z,5.93
2023-03-29T05:15:41.865Z,6.30
2023-03-29T05:18:11.140Z,5.50
2023-03-29T05:20:38.328Z,5.70
2023-03-29T05:23:05.416Z,6.07
2023-03-29T05:25:51.483Z,6.50
2023-03-29T05:28:18.862Z,6.40
2023-03-29T05:30:46.151Z,5.50
2023-03-29T05:33:20.648Z,6.80
2023-03-29T05:35:47.790Z,5.30
2023-03-29T05:38:14.945Z,5.80
2023-03-29T05:40:42.278Z,4.97
2023-03-29T05:43:18.275Z,5.47
2023-03-29T05:45:46.001Z,5.07
2023-03-29T05:48:13.289Z,4.33
2023-03-29T05:50:46.649Z,5.40
2023-03-29T05:53:13.774Z,5.77
2023-03-29T05:55:41.469Z,4.17
2023-03-29T05:58:11.597Z,5.10
2023-03-29T06:00:40.160Z,3.70
2023-03-29T06:03:24.935Z,4.50
2023-03-29T06:05:58.310Z,4.33
2023-03-29T06:08:25.910Z,4.10
2023-03-29T06:11:04.618Z,4.10
2023-03-29T06:13:54.894Z,3.77
2023-03-29T06:16:22.117Z,4.00
2023-03-29T06:18:49.344Z,4.30
2023-03-29T06:21:17.907Z,3.80
2023-03-29T06:23:45.375Z,4.00
2023-03-29T06:26:12.672Z,4.13
2023-03-29T06:28:40.442Z,4.07
2023-03-29T06:31:07.616Z,4.60
2023-03-29T06:33:38.950Z,3.40
2023-03-29T06:36:16.052Z,4.20
2023-03-29T06:38:44.775Z,3.53
2023-03-29T06:41:34.131Z,4.40
2023-03-29T06:44:06.926Z,4.07
2023-03-29T06:46:38.723Z,3.63
2023-03-29T06:49:08.026Z,3.77
2023-03-29T06:51:47.209Z,4.20
2023-03-29T06:54:15.831Z,3.30
2023-03-29T06:56:52.682Z,3.50
2023-03-29T06:59:21.926Z,3.60
2023-03-29T07:01:54.593Z,3.87
2023-03-29T07:04:30.701Z,4.07
2023-03-29T07:07:12.313Z,3.70
2023-03-29T07:09:40.922Z,3.13
2023-03-29T07:12:34.197Z,3.87
2023-03-29T07:15:02.070Z,3.53
2023-03-29T07:17:49.281Z,3.70
2023-03-29T07:20:16.776Z,3.57
2023-03-29T07:22:50.519Z,3.50
2023-03-29T07:25:19.472Z,3.80
2023-03-29T07:27:46.588Z,4.50
2023-03-29T07:30:15.118Z,4.20
2023-03-29T07:32:42.890Z,3.43
2023-03-29T07:35:23.686Z,3.70
2023-03-29T07:37:50.961Z,3.53
2023-03-29T07:40:20.017Z,3.50
2023-03-29T07:42:56.779Z,3.67
2023-03-29T07:45:26.619Z,3.90
2023-03-29T07:48:00.993Z,3.80
2023-03-29T07:50:38.690Z,4.07
2023-03-29T07:53:06.550Z,3.60
2023-03-29T07:55:35.407Z,4.13
2023-03-29T07:58:16.947Z,4.27
2023-03-29T08:00:44.357Z,4.03
2023-03-29T08:03:31.454Z,4.20
2023-03-29T08:06:01.864Z,4.13
2023-03-29T08:08:29.007Z,4.40
2023-03-29T08:11:01.949Z,3.80
2023-03-29T08:13:37.188Z,3.37
2023-03-29T08:16:22.814Z,3.83
2023-03-29T08:19:01.008Z,3.20
2023-03-29T08:21:41.749Z,3.27
2023-03-29T08:24:09.159Z,3.17
2023-03-29T08:26:47.099Z,3.37
2023-03-29T08:29:16.524Z,3.90
2023-03-29T08:31:44.371Z,3.50
2023-03-29T08:34:11.636Z,3.17
2023-03-29T08:37:10.935Z,3.37
2023-03-29T08:39:42.331Z,3.60
2023-03-29T08:43:05.928Z,3.37
2023-03-29T08:45:55.071Z,3.73
2023-03-29T08:48:25.823Z,6.23
2023-03-29T08:50:55.126Z,4.77
2023-03-29T08:53:24.510Z,3.80
2023-03-29T08:56:11.463Z,3.40
2023-03-29T08:58:58.995Z,3.60
2023-03-29T09:01:33.670Z,3.80
2023-03-29T09:04:04.412Z,4.63
2023-03-29T09:06:45.804Z,4.00
2023-03-29T09:09:20.246Z,3.40
2023-03-29T09:11:54.286Z,3.50
2023-03-29T09:14:31.912Z,4.83
2023-03-29T09:17:01.752Z,3.70
2023-03-29T09:19:34.393Z,3.93
2023-03-29T09:22:07.090Z,4.30
2023-03-29T09:24:39.977Z,4.57
2023-03-29T09:27:21.292Z,3.33
2023-03-29T09:30:02.967Z,4.40
2023-03-29T09:32:47.828Z,3.27
2023-03-29T09:35:17.642Z,3.40
2023-03-29T09:37:46.995Z,4.20
2023-03-29T09:40:16.540Z,4.70
2023-03-29T09:43:00.336Z,4.10
2023-03-29T09:45:28.848Z,4.83
2023-03-29T09:47:57.804Z,4.10
2023-03-29T09:50:31.970Z,4.40
2023-03-29T09:53:02.564Z,4.23
2023-03-29T09:55:35.287Z,4.10
2023-03-29T09:58:11.765Z,5.27
2023-03-29T10:00:42.572Z,4.00
2023-03-29T10:03:10.882Z,4.73
2023-03-29T10:05:50.127Z,5.13
2023-03-29T10:08:20.198Z,5.80
2023-03-29T10:10:48.067Z,4.87
2023-03-29T10:13:17.793Z,4.80
2023-03-29T10:15:56.727Z,4.53
2023-03-29T10:18:25.358Z,4.70
2023-03-29T10:20:58.410Z,4.50
2023-03-29T10:23:30.350Z,5.07
2023-03-29T10:25:57.757Z,6.27
2023-03-29T10:28:24.940Z,4.80
2023-03-29T10:30:55.760Z,5.00
2023-03-29T10:33:24.339Z,4.77
2023-03-29T10:35:52.145Z,4.23
2023-03-29T10:38:20.678Z,4.60
2023-03-29T10:40:48.614Z,4.50
2023-03-29T10:43:21.385Z,5.10
2023-03-29T10:45:49.153Z,4.73
2023-03-29T10:48:17.976Z,4.70
2023-03-29T10:50:48.946Z,4.97
2023-03-29T10:53:17.977Z,4.80
2023-03-29T10:55:49.298Z,4.10
2023-03-29T10:58:21.377Z,5.17
2023-03-29T11:00:51.429Z,6.00
2023-03-29T11:03:39.894Z,5.03
2023-03-29T11:06:11.334Z,6.17
2023-03-29T11:08:46.771Z,3.67
2023-03-29T11:11:22.542Z,4.53
2023-03-29T11:13:51.627Z,4.63
2023-03-29T11:16:25.013Z,4.23
2023-03-29T11:18:58.470Z,5.00
2023-03-29T11:21:28.580Z,4.63
2023-03-29T11:24:00.746Z,5.43
2023-03-29T11:26:31.896Z,4.03
2023-03-29T11:29:02.972Z,4.40
2023-03-29T11:31:34.851Z,3.50
2023-03-29T11:34:12.919Z,4.30
2023-03-29T11:36:43.569Z,4.40
2023-03-29T11:39:15.808Z,4.33
2023-03-29T11:41:44.467Z,5.20
2023-03-29T11:44:14.194Z,3.70
2023-03-29T11:46:43.568Z,4.20
2023-03-29T11:49:13.341Z,4.13
2023-03-29T11:51:43.230Z,4.47
2023-03-29T11:54:14.928Z,4.80
2023-03-29T11:56:44.899Z,5.53
2023-03-29T11:59:14.825Z,4.33
2023-03-29T12:01:44.008Z,4.43
2023-03-29T12:04:15.517Z,3.90
2023-03-29T12:06:44.869Z,4.50
2023-03-29T12:09:17.567Z,4.53
2023-03-29T12:11:49.366Z,4.30
2023-03-29T12:14:18.898Z,4.87
2023-03-29T12:16:48.663Z,5.27
2023-03-29T12:19:19.447Z,5.10
2023-03-29T12:21:46.945Z,4.27
2023-03-29T12:24:16.690Z,4.97
2023-03-29T12:26:53.262Z,3.90
2023-03-29T12:29:30.703Z,4.07
2023-03-29T12:32:01.569Z,5.00
2023-03-29T12:34:44.962Z,4.00
2023-03-29T12:37:33.421Z,4.97
2023-03-29T12:40:20.388Z,4.60
2023-03-29T12:43:08.359Z,4.43
2023-03-29T12:45:55.104Z,4.70
2023-03-29T12:48:24.279Z,4.60
2023-03-29T12:50:53.828Z,5.03
2023-03-29T12:53:23.694Z,4.87
2023-03-29T12:55:54.540Z,4.60
2023-03-29T12:58:24.993Z,4.10
2023-03-29T13:00:57.527Z,3.97
2023-03-29T13:03:29.554Z,3.43
2023-03-29T13:06:01.504Z,4.23
2023-03-29T13:08:34.648Z,3.40
2023-03-29T13:11:02.319Z,3.30
2023-03-29T13:13:31.710Z,3.40
2023-03-29T13:16:09.456Z,3.10
2023-03-29T13:18:42.696Z,2.30
2023-03-29T13:21:17.120Z,2.40
2023-03-29T13:23:49.320Z,3.10
2023-03-29T13:26:21.601Z,3.40
2023-03-29T13:28:58.457Z,2.47
2023-03-29T13:31:33.681Z,2.83
2023-03-29T13:34:04.161Z,3.27
2023-03-29T13:36:37.988Z,2.23
2023-03-29T13:39:06.544Z,2.40
2023-03-29T13:41:43.926Z,2.50
2023-03-29T13:44:23.764Z,2.70
2023-03-29T13:47:02.750Z,2.70
2023-03-29T13:49:31.602Z,3.53
2023-03-29T13:52:06.224Z,2.83
2023-03-29T13:54:35.493Z,3.03
2023-03-29T13:57:05.694Z,2.83
2023-03-29T13:59:37.378Z,2.13
2023-03-29T14:02:05.805Z,1.80
2023-03-29T14:04:36.043Z,2.30
2023-03-29T14:07:05.604Z,2.00
2023-03-29T14:09:33.911Z,2.37
2023-03-29T14:12:01.569Z,2.00
2023-03-29T14:14:30.844Z,1.50
2023-03-29T14:16:58.205Z,1.87
2023-03-29T14:19:29.778Z,2.30
2023-03-29T14:21:57.806Z,2.07
2023-03-29T14:24:27.648Z,2.60
2023-03-29T14:26:55.202Z,1.97
2023-03-29T14:29:24.363Z,2.07
2023-03-29T14:31:52.690Z,1.90
2023-03-29T14:34:19.907Z,2.10
2023-03-29T14:36:48.224Z,2.40
2023-03-29T14:39:17.064Z,2.43
2023-03-29T14:41:49.108Z,1.80
2023-03-29T14:44:16.477Z,1.90
2023-03-29T14:46:45.160Z,2.10
2023-03-29T14:49:15.072Z,2.47
2023-03-29T14:51:42.382Z,2.33
2023-03-29T14:54:16.697Z,2.17
2023-03-29T14:56:43.844Z,2.23
2023-03-29T14:59:23.240Z,2.40
2023-03-29T15:01:50.451Z,2.30
2023-03-29T15:04:17.652Z,2.17
2023-03-29T15:06:46.100Z,1.83
2023-03-29T15:09:15.426Z,1.80
2023-03-29T15:11:42.629Z,1.83
2023-03-29T15:14:14.720Z,1.90
2023-03-29T15:16:45.348Z,2.80
2023-03-29T15:19:13.696Z,2.33
2023-03-29T15:21:40.818Z,2.57
2023-03-29T15:24:19.444Z,1.97
2023-03-29T15:26:46.589Z,2.20
2023-03-29T15:29:14.979Z,2.30
2023-03-29T15:31:43.640Z,1.57
2023-03-29T15:34:11.999Z,2.30
2023-03-29T15:36:40.782Z,1.90
2023-03-29T15:39:10.808Z,2.00
2023-03-29T15:41:37.895Z,1.70
2023-03-29T15:44:05.056Z,3.00
2023-03-29T15:46:32.251Z,2.33
2023-03-29T15:49:01.043Z,3.47
2023-03-29T15:51:28.152Z,2.00
2023-03-29T15:53:55.275Z,2.10
2023-03-29T15:56:22.637Z,2.27
2023-03-29T15:58:49.864Z,2.00
2023-03-29T16:01:22.324Z,2.30
2023-03-29T16:03:49.616Z,2.27
2023-03-29T16:06:18.075Z,1.90
2023-03-29T16:08:45.186Z,2.00
2023-03-29T16:11:12.229Z,2.00
2023-03-29T16:13:39.412Z,2.20
2023-03-29T16:16:07.521Z,1.90
2023-03-29T16:18:34.935Z,2.60
2023-03-29T16:21:02.045Z,2.10
2023-03-29T16:23:30.484Z,2.27
2023-03-29T16:25:57.612Z,2.77
2023-03-29T16:28:24.700Z,2.73
2023-03-29T16:30:51.787Z,2.17
2023-03-29T16:33:19.000Z,3.03
2023-03-29T16:35:46.123Z,2.50
2023-03-29T16:38:13.264Z,2.67
2023-03-29T16:40:41.789Z,2.27
2023-03-29T16:43:13.277Z,2.43
2023-03-29T16:45:40.504Z,2.33
2023-03-29T16:48:07.642Z,2.27
2023-03-29T16:50:34.928Z,2.57
2023-03-29T16:53:02.031Z,2.40
2023-03-29T16:55:29.106Z,2.10
2023-03-29T16:57:57.558Z,2.30
2023-03-29T17:00:24.712Z,2.17
2023-03-29T17:02:51.862Z,2.23
2023-03-29T17:05:20.280Z,2.40
2023-03-29T17:07:47.432Z,2.53
2023-03-29T17:10:15.059Z,2.00
2023-03-29T17:12:42.110Z,2.90
2023-03-29T17:15:10.670Z,2.87
2023-03-29T17:17:37.963Z,2.27
2023-03-29T17:20:05.458Z,3.00
2023-03-29T17:22:32.585Z,3.43
2023-03-29T17:24:59.639Z,2.70
2023-03-29T17:27:26.812Z,2.80
2023-03-29T17:29:53.869Z,2.97
2023-03-29T17:32:22.293Z,3.10
2023-03-29T17:34:49.377Z,3.73
2023-03-29T17:37:16.460Z,2.70
2023-03-29T17:39:43.559Z,3.10
2023-03-29T17:42:10.647Z,2.93
2023-03-29T17:44:37.778Z,3.70
2023-03-29T17:47:05.025Z,2.93
2023-03-29T17:49:33.503Z,3.70
2023-03-29T17:52:00.801Z,3.40
2023-03-29T17:54:27.999Z,2.70
2023-03-29T17:56:55.109Z,3.20
2023-03-29T17:59:22.197Z,3.70
2023-03-29T18:01:49.428Z,3.37
2023-03-29T18:04:16.705Z,3.50
2023-03-29T18:06:45.128Z,2.70
2023-03-29T18:09:13.090Z,2.90
2023-03-29T18:11:40.195Z,3.10
2023-03-29T18:14:07.297Z,2.80
2023-03-29T18:16:34.417Z,2.60
2023-03-29T18:19:01.541Z,3.60
2023-03-29T18:21:28.652Z,2.60
2023-03-29T18:23:57.217Z,3.20
2023-03-29T18:26:24.487Z,3.20
2023-03-29T18:28:51.632Z,2.90
2023-03-29T18:31:18.912Z,3.50
2023-03-29T18:33:46.074Z,2.90
2023-03-29T18:36:14.075Z,2.80
2023-03-29T18:38:41.729Z,3.20
2023-03-29T18:41:10.249Z,3.03
2023-03-29T18:43:37.329Z,2.73
2023-03-29T18:46:04.557Z,2.97
2023-03-29T18:48:31.759Z,2.90
2023-03-29T18:50:59.060Z,2.90
2023-03-29T18:53:26.190Z,3.20
2023-03-29T18:55:53.430Z,2.63
2023-03-29T18:58:21.862Z,2.90
2023-03-29T19:00:48.940Z,2.30
2023-03-29T19:03:16.104Z,2.53
2023-03-29T19:05:43.417Z,2.90
2023-03-29T19:08:10.493Z,3.33
2023-03-29T19:10:37.853Z,3.20
2023-03-29T19:13:05.333Z,2.87
2023-03-29T19:15:33.926Z,3.07
2023-03-29T19:18:01.215Z,2.70
2023-03-29T19:20:28.576Z,3.23
2023-03-29T19:22:55.717Z,3.30
2023-03-29T19:25:22.791Z,2.73
2023-03-29T19:27:49.873Z,3.20
2023-03-29T19:30:17.078Z,2.70
2023-03-29T19:32:45.698Z,2.93
2023-03-29T19:35:12.838Z,3.20
2023-03-29T19:37:39.960Z,2.87
2023-03-29T19:40:07.593Z,3.07
2023-03-29T19:42:34.836Z,2.67
2023-03-29T19:45:01.922Z,3.20
2023-03-29T19:47:29.041Z,2.90
2023-03-29T19:49:58.890Z,2.97
2023-03-29T19:52:26.192Z,3.50
2023-03-29T19:54:53.250Z,2.90
2023-03-29T19:57:20.479Z,2.93
2023-03-29T19:59:47.632Z,3.60
2023-03-29T20:02:15.138Z,2.93
2023-03-29T20:04:42.303Z,2.80
2023-03-29T20:07:10.728Z,2.47
2023-03-29T20:09:37.785Z,3.30
2023-03-29T20:12:05.196Z,3.30
2023-03-29T20:14:32.501Z,3.70
2023-03-29T20:16:59.568Z,2.97
2023-03-29T20:19:26.682Z,3.10
2023-03-29T20:21:54.359Z,3.17
2023-03-29T20:24:23.002Z,3.10
2023-03-29T20:26:50.145Z,3.73
2023-03-29T20:29:17.656Z,3.30
2023-03-29T20:31:44.859Z,3.20
2023-03-29T20:34:12.055Z,3.57
2023-03-29T20:36:39.284Z,3.33
2023-03-29T20:39:06.520Z,3.37
2023-03-29T20:41:34.960Z,3.33
2023-03-29T20:44:02.048Z,2.97
2023-03-29T20:46:29.666Z,3.43
2023-03-29T20:48:56.805Z,3.40
2023-03-29T20:51:24.421Z,4.37
2023-03-29T20:53:51.526Z,4.10
2023-03-29T20:56:18.598Z,3.67
2023-03-29T20:58:46.997Z,3.63
2023-03-29T21:01:14.151Z,3.90
2023-03-29T21:03:41.373Z,3.70
2023-03-29T21:06:08.607Z,3.67
2023-03-29T21:08:35.727Z,4.17
2023-03-29T21:11:03.006Z,3.90
2023-03-29T21:13:30.407Z,3.90
2023-03-29T21:15:58.871Z,3.13
2023-03-29T21:18:25.990Z,3.90
2023-03-29T21:20:53.119Z,3.23
2023-03-29T21:23:20.179Z,3.80
2023-03-29T21:25:47.267Z,4.37
2023-03-29T21:28:14.359Z,3.33
2023-03-29T21:30:41.447Z,3.47
2023-03-29T21:33:09.908Z,3.83
2023-03-29T21:35:37.105Z,3.13
2023-03-29T21:38:04.216Z,3.40
2023-03-29T21:40:31.282Z,3.67
2023-03-29T21:42:58.374Z,2.73
2023-03-29T21:45:25.503Z,3.20
2023-03-29T21:47:52.588Z,3.20
2023-03-29T21:50:21.002Z,2.83
2023-03-29T21:52:48.060Z,2.90
2023-03-29T21:55:15.272Z,2.80
2023-03-29T21:57:42.389Z,3.47
2023-03-29T22:00:10.270Z,3.20
2023-03-29T22:02:37.453Z,3.20
2023-03-29T22:05:04.742Z,3.63
2023-03-29T22:07:33.401Z,2.70
2023-03-29T22:10:00.539Z,3.57
2023-03-29T22:12:27.642Z,3.40
2023-03-29T22:14:54.722Z,3.00
2023-03-29T22:17:21.853Z,2.97
2023-03-29T22:19:49.070Z,3.80
2023-03-29T22:22:16.174Z,3.60
2023-03-29T22:24:44.641Z,3.33
2023-03-29T22:27:12.017Z,3.37
2023-03-29T22:29:39.128Z,3.27
2023-03-29T22:32:06.286Z,3.20
2023-03-29T22:34:33.612Z,3.93
2023-03-29T22:37:00.731Z,3.50
2023-03-29T22:39:27.880Z,3.00
2023-03-29T22:41:56.376Z,4.07
2023-03-29T22:44:23.431Z,3.00
2023-03-29T22:46:50.755Z,3.33
2023-03-29T22:49:17.856Z,3.23
2023-03-29T22:51:45.002Z,4.20
2023-03-29T22:54:12.152Z,3.77
2023-03-29T22:56:39.278Z,3.20
2023-03-29T22:59:07.733Z,2.97
2023-03-29T23:01:34.961Z,3.13
2023-03-29T23:04:02.103Z,3.53
2023-03-29T23:06:30.543Z,3.60
2023-03-29T23:08:57.620Z,3.40
2023-03-29T23:11:24.737Z,3.20
2023-03-29T23:13:51.791Z,3.43
2023-03-29T23:16:20.395Z,3.97
2023-03-29T23:18:47.859Z,3.30
2023-03-29T23:21:15.002Z,3.50
2023-03-29T23:23:42.079Z,3.50
2023-03-29T23:26:09.182Z,4.00
2023-03-29T23:28:36.373Z,2.83
2023-03-29T23:31:05.046Z,3.60
2023-03-29T23:33:34.444Z,4.20
2023-03-29T23:36:02.109Z,3.83
2023-03-29T23:38:29.206Z,3.83
2023-03-29T23:40:57.296Z,3.30
2023-03-29T23:43:24.489Z,3.23
2023-03-29T23:45:55.694Z,3.27
2023-03-29T23:48:22.778Z,3.33
2023-03-29T23:50:51.229Z,4.03
2023-03-29T23:53:18.299Z,3.10
2023-03-29T23:55:45.398Z,3.10
2023-03-29T23:58:12.502Z,3.30
